Time;durP1;ratioP1;P1;durP2;ratioP2;P2;SDS_P1;SDS_P2;PMS_P1;PMS_P2;Temp;Humidity;BMP_temperature;BMP_pressure;BME280_temperature;BME280_humidity;BME280_pressure;Samples;Min_cycle;Max_cycle;Signal;HPM_P1;HPM_P2
2022/04/24 00:00:56;;;;;;;6.63;2.67;;;;;;;16.44;65.08;100672.59;2098745;28;20056;-78
2022/04/24 00:02:17;;;;;;;9.60;2.88;;;;;;;16.35;65.20;100668.22;2101769;28;20141;-78
2022/04/24 00:03:42;;;;;;;;;;;;;;;16.24;65.38;100671.00;2102591;28;20052;-78
2022/04/24 00:05:06;;;;;;;8.57;2.75;;;;;;;16.14;65.65;100671.09;2101573;28;19999;-79
2022/04/24 00:06:31;;;;;;;7.72;3.40;;;;;;;16.06;65.74;100659.63;2097181;28;20056;-78
2022/04/24 00:07:54;;;;;;;9.98;2.50;;;;;;;15.97;65.86;100665.91;2101885;28;20048;-79
2022/04/24 00:09:19;;;;;;;6.68;2.55;;;;;;;15.90;65.99;100665.06;2102865;28;20048;-78
2022/04/24 00:10:43;;;;;;;10.40;2.80;;;;;;;15.85;66.22;100672.22;2087628;28;20065;-78
2022/04/24 00:12:07;;;;;;;8.68;3.10;;;;;;;15.79;66.39;100661.63;2098655;28;20052;-78
2022/04/24 00:13:33;;;;;;;7.13;2.70;;;;;;;15.74;66.42;100662.53;2110778;28;20080;-77
2022/04/24 00:14:56;;;;;;;7.13;2.65;;;;;;;15.68;66.72;100663.47;2103541;28;20579;-78
2022/04/24 00:16:17;;;;;;;6.47;2.65;;;;;;;15.64;66.82;100664.38;2095906;28;20044;-78
2022/04/24 00:17:40;;;;;;;6.43;2.30;;;;;;;15.60;67.08;100665.28;2093884;28;20053;-77
2022/04/24 00:19:03;;;;;;;7.20;2.65;;;;;;;15.58;67.21;100667.06;2102369;28;20510;-78
2022/04/24 00:20:26;;;;;;;7.95;2.55;;;;;;;15.54;67.37;100666.22;2104526;28;20060;-78
2022/04/24 00:21:48;;;;;;;6.93;2.70;;;;;;;15.50;67.52;100660.88;2103779;28;20044;-78
2022/04/24 00:23:11;;;;;;;6.15;2.83;;;;;;;15.42;67.72;100663.63;2110261;28;20150;-77
2022/04/24 00:24:32;;;;;;;10.40;2.63;;;;;;;15.33;67.92;100661.00;2104525;28;20075;-78
2022/04/24 00:25:55;;;;;;;6.57;2.30;;;;;;;15.23;68.30;100663.72;2109153;28;20533;-77
2022/04/24 00:27:17;;;;;;;8.65;2.17;;;;;;;15.15;68.65;100656.66;2102738;28;20668;-78
2022/04/24 00:28:40;;;;;;;8.45;2.30;;;;;;;15.14;68.99;100660.22;2102125;28;20052;-78
2022/04/24 00:30:03;;;;;;;4.40;2.38;;;;;;;15.15;69.13;100656.66;2108652;28;20047;-78
2022/04/24 00:31:24;;;;;;;6.43;2.17;;;;;;;15.15;69.04;100663.75;2103677;28;20043;-78
2022/04/24 00:32:47;;;;;;;7.18;2.10;;;;;;;15.12;69.35;100661.97;2100105;28;20093;-78
2022/04/24 00:34:11;;;;;;;8.85;2.88;;;;;;;15.12;69.60;100659.31;2099666;28;20055;-77
2022/04/24 00:35:33;;;;;;;8.02;2.70;;;;;;;15.14;69.50;100661.97;2101203;28;20512;-78
2022/04/24 00:36:55;;;;;;;9.77;2.92;;;;;;;15.15;69.28;100661.09;2093597;28;20048;-78
2022/04/24 00:38:17;;;;;;;5.45;2.70;;;;;;;15.14;69.46;100657.53;2107807;28;20081;-78
2022/04/24 00:39:40;;;;;;;8.18;2.35;;;;;;;15.13;69.47;100655.78;2103547;28;20058;-78
2022/04/24 00:41:03;;;;;;;6.22;2.70;;;;;;;15.10;69.63;100657.53;2102212;28;20139;-78
2022/04/24 00:42:25;;;;;;;6.15;2.35;;;;;;;15.09;69.47;100659.34;2102141;28;20139;-77
2022/04/24 00:43:52;;;;;;;7.07;2.90;;;;;;;15.09;69.54;100655.81;2098979;28;20089;-78
2022/04/24 00:45:47;;;;;;;6.82;2.35;;;;;;;15.05;69.55;100654.91;2107502;28;20095;-78
2022/04/24 00:47:15;;;;;;;5.15;2.45;;;;;;;15.05;69.49;100652.25;2104528;28;20068;-78
2022/04/24 00:48:36;;;;;;;7.88;2.70;;;;;;;15.02;69.48;100651.41;2101711;28;20082;-78
2022/04/24 00:50:01;;;;;;;7.70;2.45;;;;;;;15.02;69.69;100649.63;2101861;28;20106;-78
2022/04/24 00:51:22;;;;;;;7.53;2.15;;;;;;;15.04;69.82;100650.47;2101091;28;20083;-78
2022/04/24 00:52:46;;;;;;;3.03;1.83;;;;;;;15.08;70.01;100654.03;2093707;28;20429;-77
2022/04/24 00:54:10;;;;;;;5.85;2.20;;;;;;;15.09;69.93;100654.03;2093977;28;20064;-77
2022/04/24 00:55:32;;;;;;;5.72;2.53;;;;;;;15.09;70.04;100648.72;2093689;28;20114;-78
2022/04/24 00:56:55;;;;;;;9.18;2.88;;;;;;;15.09;70.01;100651.38;2100815;28;20044;-77
2022/04/24 00:58:16;;;;;;;5.93;2.17;;;;;;;15.06;70.09;100654.03;2100632;28;20040;-77
2022/04/24 00:59:39;;;;;;;7.03;2.25;;;;;;;15.01;70.17;100645.19;2100879;28;20052;-77
2022/04/24 01:01:01;;;;;;;8.60;2.53;;;;;;;14.95;70.22;100647.00;2104566;28;20105;-77
2022/04/24 01:02:24;;;;;;;8.65;2.38;;;;;;;14.87;70.50;100641.72;2103326;28;20342;-77
2022/04/24 01:03:45;;;;;;;6.07;2.08;;;;;;;14.86;70.62;100641.72;2104001;28;20131;-77
2022/04/24 01:05:11;;;;;;;9.43;2.38;;;;;;;14.87;70.68;100644.38;2092327;28;20114;-77
2022/04/24 01:06:34;;;;;;;6.82;2.90;;;;;;;14.87;70.79;100639.06;2101289;28;20048;-77
2022/04/24 01:07:57;;;;;;;7.90;2.17;;;;;;;14.86;70.85;100642.59;2103364;28;20071;-77
2022/04/24 01:09:20;;;;;;;5.70;1.67;;;;;;;14.82;71.08;100635.53;2105907;28;20488;-77
2022/04/24 01:10:42;;;;;;;9.93;2.35;;;;;;;14.73;71.27;100647.06;2105766;28;20144;-77
2022/04/24 01:12:05;;;;;;;8.07;2.22;;;;;;;14.66;71.44;100641.78;2100644;28;20544;-77
2022/04/24 01:13:27;;;;;;;8.20;2.20;;;;;;;14.61;71.64;100649.78;2102675;28;20146;-77
2022/04/24 01:14:49;;;;;;;6.68;1.90;;;;;;;14.56;71.99;100643.59;2102239;28;20051;-77
2022/04/24 01:16:11;;;;;;;4.90;1.70;;;;;;;14.49;72.19;100646.25;2110717;27;20117;-77
2022/04/24 01:17:34;;;;;;;6.72;2.35;;;;;;;14.48;72.50;100647.16;2113689;28;20075;-77
2022/04/24 01:18:57;;;;;;;6.57;2.25;;;;;;;14.49;72.81;100643.59;2080828;28;20060;-77
2022/04/24 01:20:23;;;;;;;10.90;2.17;;;;;;;14.54;72.91;100642.69;2090530;28;20040;-77
2022/04/24 01:21:47;;;;;;;6.65;2.40;;;;;;;14.60;72.68;100644.44;2095308;28;20052;-77
2022/04/24 01:23:09;;;;;;;10.60;3.03;;;;;;;14.62;72.57;100634.72;2103303;28;20580;-77
2022/04/24 01:24:32;;;;;;;6.68;2.38;;;;;;;14.62;72.30;100637.38;2097660;28;20287;-77
2022/04/24 01:25:54;;;;;;;6.28;2.47;;;;;;;14.62;72.26;100648.00;2099945;28;20052;-77
2022/04/24 01:27:17;;;;;;;6.30;2.60;;;;;;;14.59;72.15;100640.91;2102266;28;20545;-77
2022/04/24 01:28:38;;;;;;;5.55;2.53;;;;;;;14.56;71.99;100635.63;2103229;28;20048;-77
2022/04/24 01:30:00;;;;;;;7.88;2.95;;;;;;;14.56;71.82;100637.41;2111472;28;20054;-77
2022/04/24 01:31:21;;;;;;;6.30;2.55;;;;;;;14.54;71.82;100636.50;2104829;28;20044;-77
2022/04/24 01:32:44;;;;;;;6.38;2.25;;;;;;;14.50;71.60;100640.94;2102214;28;20056;-77
2022/04/24 01:34:07;;;;;;;10.57;2.95;;;;;;;14.48;71.53;100639.19;2110506;28;20043;-77
2022/04/24 01:35:31;;;;;;;6.05;2.90;;;;;;;14.48;71.45;100644.50;2104791;28;20139;-77
2022/04/24 01:36:53;;;;;;;9.10;2.65;;;;;;;14.46;71.43;100640.94;2103381;28;20381;-77
2022/04/24 01:38:15;;;;;;;7.72;2.85;;;;;;;14.47;71.38;100643.59;2102264;28;20135;-77
2022/04/24 01:39:37;;;;;;;7.43;2.78;;;;;;;14.48;71.27;100645.38;2102946;28;20066;-77
2022/04/24 01:40:58;;;;;;;5.90;2.78;;;;;;;14.50;71.10;100648.03;2110964;28;20622;-77
2022/04/24 01:42:21;;;;;;;8.23;3.00;;;;;;;14.51;71.14;100647.13;2097462;28;20045;-77
2022/04/24 01:43:42;;;;;;;6.32;2.50;;;;;;;14.50;71.12;100648.91;2100564;28;20044;-77
2022/04/24 01:45:06;;;;;;;6.10;2.42;;;;;;;14.51;71.21;100649.78;2119957;27;20070;-77
2022/04/24 01:46:27;;;;;;;8.95;2.50;;;;;;;14.45;71.32;100650.69;2107409;28;20040;-77
2022/04/24 01:47:50;;;;;;;9.77;2.97;;;;;;;14.44;71.36;100651.56;2102729;28;20059;-77
2022/04/24 01:49:13;;;;;;;6.55;2.80;;;;;;;14.44;71.41;100648.06;2105832;28;20048;-78
2022/04/24 01:50:36;;;;;;;8.23;3.08;;;;;;;14.45;71.37;100649.78;2094790;28;20048;-77
2022/04/24 01:51:59;;;;;;;5.30;2.33;;;;;;;14.45;71.46;100641.81;2099405;28;20491;-77
2022/04/24 01:53:20;;;;;;;9.27;3.22;;;;;;;14.45;71.40;100644.47;2102188;28;20052;-77
2022/04/24 01:54:43;;;;;;;7.93;2.28;;;;;;;14.46;71.42;100641.81;2111019;28;20048;-77
2022/04/24 01:56:07;;;;;;;7.57;2.17;;;;;;;14.44;71.40;100638.28;2103081;28;20041;-77
2022/04/24 01:57:30;;;;;;;11.52;2.35;;;;;;;14.44;71.33;100648.06;2097278;28;20056;-77
2022/04/24 01:58:53;;;;;;;8.73;2.80;;;;;;;14.41;71.38;100640.06;2099762;28;20039;-77
2022/04/24 02:00:15;;;;;;;8.52;2.80;;;;;;;14.37;71.44;100636.53;2101504;28;20056;-77
2022/04/24 02:01:37;;;;;;;7.20;2.40;;;;;;;14.31;71.49;100639.16;2102739;28;20048;-76
2022/04/24 02:03:00;;;;;;;5.75;2.78;;;;;;;14.26;71.65;100641.84;2104509;28;20075;-77
2022/04/24 02:04:23;;;;;;;20.52;3.22;;;;;;;14.20;71.73;100639.19;2102370;28;20081;-77
2022/04/24 02:05:48;;;;;;;8.40;2.92;;;;;;;14.18;71.71;100645.38;2102813;28;20712;-77
2022/04/24 02:07:11;;;;;;;7.95;2.08;;;;;;;14.13;71.76;100650.69;2111684;28;20043;-76
2022/04/24 02:08:35;;;;;;;5.10;1.77;;;;;;;14.08;71.74;100649.81;2111369;28;20100;-77
2022/04/24 02:09:57;;;;;;;5.35;2.42;;;;;;;14.03;71.89;100643.63;2102202;28;20078;-77
2022/04/24 02:11:18;;;;;;;10.00;2.72;;;;;;;13.98;71.92;100649.84;2102079;28;20040;-77
2022/04/24 02:12:41;;;;;;;5.40;2.30;;;;;;;13.88;72.08;100648.94;2094572;28;20045;-76
2022/04/24 02:14:04;;;;;;;8.50;2.47;;;;;;;13.78;72.27;100647.19;2094688;28;20390;-76
2022/04/24 02:15:25;;;;;;;4.20;1.80;;;;;;;13.73;72.63;100662.19;2094124;28;20830;-76
2022/04/24 02:16:47;;;;;;;4.80;2.05;;;;;;;13.73;72.57;100656.88;2104725;28;20417;-77
2022/04/24 02:18:10;;;;;;;8.98;2.55;;;;;;;13.77;72.37;100658.66;2102694;28;20044;-76
2022/04/24 02:19:33;;;;;;;7.95;2.30;;;;;;;13.80;72.36;100664.84;2105268;28;20052;-76
2022/04/24 02:20:57;;;;;;;4.85;2.13;;;;;;;13.83;72.08;100658.66;2097177;28;20536;-77
2022/04/24 02:22:19;;;;;;;3.83;1.90;;;;;;;13.78;72.13;100663.97;2094287;28;20122;-77
2022/04/24 02:23:42;;;;;;;11.82;3.17;;;;;;;13.77;72.12;100658.66;2094363;28;20431;-76
2022/04/24 02:25:05;;;;;;;6.43;1.88;;;;;;;13.74;71.82;100656.88;2102529;28;20562;-77
2022/04/24 02:26:27;;;;;;;5.78;2.03;;;;;;;13.73;72.10;100660.41;2107803;28;20055;-77
2022/04/24 02:27:49;;;;;;;8.20;2.38;;;;;;;13.73;72.03;100656.88;2113866;28;20051;-77
2022/04/24 02:29:11;;;;;;;6.68;2.08;;;;;;;13.72;71.78;100665.75;2104212;28;20520;-77
2022/04/24 02:30:32;;;;;;;3.83;2.00;;;;;;;13.73;71.96;100660.41;2096923;28;20053;-76
2022/04/24 02:31:55;;;;;;;5.55;1.80;;;;;;;13.72;71.55;100658.63;2101242;28;20098;-76
2022/04/24 02:33:17;;;;;;;5.25;1.90;;;;;;;13.72;71.08;100658.63;2109902;28;20135;-77
2022/04/24 02:34:40;;;;;;;5.25;1.70;;;;;;;13.74;71.17;100661.31;2103390;28;20129;-76
2022/04/24 02:36:05;;;;;;;4.43;1.90;;;;;;;13.74;71.30;100648.94;2102285;28;20048;-76
2022/04/24 02:37:27;;;;;;;5.82;1.90;;;;;;;13.73;71.12;100654.22;2094808;28;20037;-76
2022/04/24 02:38:49;;;;;;;5.00;2.20;;;;;;;13.70;70.95;100652.47;2094195;28;20531;-76
2022/04/24 02:40:11;;;;;;;6.47;2.95;;;;;;;13.68;71.05;100663.94;2094349;28;20049;-76
2022/04/24 02:41:34;;;;;;;7.05;2.33;;;;;;;13.64;70.98;100654.22;2102856;28;20055;-76
2022/04/24 02:42:57;;;;;;;5.95;2.38;;;;;;;13.62;71.10;100658.63;2096935;28;20135;-77
2022/04/24 02:44:19;;;;;;;8.30;2.78;;;;;;;13.57;71.22;100654.22;2100204;28;20068;-77
2022/04/24 02:45:42;;;;;;;5.65;2.25;;;;;;;13.57;71.24;100659.53;2111005;28;20138;-77
2022/04/24 02:47:05;;;;;;;7.20;2.05;;;;;;;13.59;71.23;100658.66;2101145;28;20519;-77
2022/04/24 02:48:27;;;;;;;6.55;2.20;;;;;;;13.57;71.45;100659.53;2094363;28;20052;-77
2022/04/24 02:49:49;;;;;;;;;;;;;;;13.57;71.15;100658.63;2093916;28;20044;-77
2022/04/24 02:51:13;;;;;;;6.70;2.58;;;;;;;13.56;71.01;100662.16;2091724;28;20346;-77
2022/04/24 02:52:46;;;;;;;8.63;2.63;;;;;;;13.58;70.99;100660.41;2091841;28;20496;-77
2022/04/24 02:54:09;;;;;;;4.78;1.98;;;;;;;13.57;70.94;100662.19;2102745;28;20044;-77
2022/04/24 02:55:31;;;;;;;5.38;1.98;;;;;;;13.58;70.80;100657.75;2105187;28;20055;-76
2022/04/24 02:56:54;;;;;;;7.43;2.50;;;;;;;13.55;70.59;100658.63;2100571;28;20036;-77
2022/04/24 02:58:15;;;;;;;4.13;2.17;;;;;;;13.50;71.19;100659.50;2102567;28;20051;-76
2022/04/24 02:59:38;;;;;;;3.67;2.05;;;;;;;13.47;71.04;100660.38;2100229;28;20447;-76
2022/04/24 03:00:59;;;;;;;6.15;2.13;;;;;;;13.46;70.80;100657.72;2101945;28;20443;-76
2022/04/24 03:02:21;;;;;;;4.45;2.25;;;;;;;13.44;70.78;100655.09;2105243;28;20047;-76
2022/04/24 03:03:45;;;;;;;3.95;1.98;;;;;;;13.43;70.80;100653.31;2102511;28;20058;-76
2022/04/24 03:05:07;;;;;;;6.78;2.33;;;;;;;13.44;70.74;100654.19;2101477;28;20147;-76
2022/04/24 03:06:31;;;;;;;5.22;1.83;;;;;;;13.45;70.80;100661.28;2104526;28;20044;-76
2022/04/24 03:07:53;;;;;;;6.28;2.40;;;;;;;13.43;71.12;100658.63;2104987;28;20146;-76
2022/04/24 03:09:16;;;;;;;4.90;1.98;;;;;;;13.43;71.12;100658.63;2109756;28;20554;-76
2022/04/24 03:10:38;;;;;;;4.32;2.40;;;;;;;13.43;70.77;100655.06;2095538;28;20566;-76
2022/04/24 03:11:59;;;;;;;5.82;2.50;;;;;;;13.38;70.67;100657.72;2100950;28;20643;-76
2022/04/24 03:13:22;;;;;;;11.80;2.85;;;;;;;13.35;70.75;100660.34;2105595;28;20077;-76
2022/04/24 03:14:45;;;;;;;6.80;2.67;;;;;;;13.33;71.25;100656.81;2104782;28;20048;-76
2022/04/24 03:16:08;;;;;;;5.70;2.38;;;;;;;13.34;71.08;100655.94;2109044;28;20046;-75
2022/04/24 03:17:32;;;;;;;5.85;2.92;;;;;;;13.33;70.98;100658.56;2105142;28;20090;-76
2022/04/24 03:18:54;;;;;;;8.65;4.25;;;;;;;13.35;71.07;100660.34;2093740;28;20049;-75
2022/04/24 03:20:16;;;;;;;10.57;5.05;;;;;;;13.37;71.11;100663.00;2098805;28;20068;-76
2022/04/24 03:21:40;;;;;;;10.20;6.78;;;;;;;13.41;70.77;100657.72;2094177;28;20053;-76
2022/04/24 03:23:03;;;;;;;10.50;6.88;;;;;;;13.42;71.02;100661.25;2099058;28;20368;-76
2022/04/24 03:24:26;;;;;;;8.55;6.13;;;;;;;13.38;70.61;100665.69;2088334;28;20503;-75
2022/04/24 03:25:50;;;;;;;9.25;4.82;;;;;;;13.35;70.97;100663.00;2107545;28;20032;-76
2022/04/24 03:27:12;;;;;;;8.00;3.95;;;;;;;13.31;70.98;100666.53;2096523;28;20041;-76
2022/04/24 03:28:34;;;;;;;9.18;3.85;;;;;;;13.29;71.17;100676.25;2097893;28;20117;-75
2022/04/24 03:29:57;;;;;;;5.47;2.47;;;;;;;13.28;70.85;100671.81;2110701;28;20044;-76
2022/04/24 03:31:20;;;;;;;10.88;2.75;;;;;;;13.28;71.06;100668.28;2104661;28;20044;-76
2022/04/24 03:32:42;;;;;;;8.82;3.28;;;;;;;13.28;71.02;100671.81;2107742;28;20701;-76
2022/04/24 03:34:06;;;;;;;7.88;3.58;;;;;;;13.29;70.97;100665.63;2103104;28;20136;-77
2022/04/24 03:35:28;;;;;;;5.40;2.25;;;;;;;13.31;71.54;100666.53;2101588;28;20143;-76
2022/04/24 03:36:52;;;;;;;9.05;2.97;;;;;;;13.33;71.29;100662.09;2109517;28;20076;-76
2022/04/24 03:38:14;;;;;;;5.72;2.80;;;;;;;13.36;71.15;100663.88;2103695;28;20093;-76
2022/04/24 03:39:37;;;;;;;6.25;2.55;;;;;;;13.35;71.35;100667.41;2099763;28;20063;-76
2022/04/24 03:41:00;;;;;;;5.07;2.30;;;;;;;13.33;71.73;100663.88;2102066;28;20036;-76
2022/04/24 03:42:22;;;;;;;9.55;2.83;;;;;;;13.33;71.61;100664.75;2101587;28;20063;-76
2022/04/24 03:43:45;;;;;;;5.82;2.80;;;;;;;13.35;71.74;100665.66;2104982;28;20039;-76
2022/04/24 03:45:08;;;;;;;9.25;3.08;;;;;;;13.37;71.43;100668.31;2119055;27;20557;-76
2022/04/24 03:46:31;;;;;;;6.90;1.98;;;;;;;13.35;71.35;100670.06;2115397;27;20040;-76
2022/04/24 03:47:53;;;;;;;12.30;3.38;;;;;;;13.35;71.49;100667.41;2120514;27;20403;-76
2022/04/24 03:49:16;;;;;;;6.57;2.70;;;;;;;13.41;71.95;100670.09;2096619;28;20051;-76
2022/04/24 03:50:38;;;;;;;8.18;3.03;;;;;;;13.47;71.51;100676.28;2094033;28;20056;-76
2022/04/24 03:52:02;;;;;;;6.88;2.45;;;;;;;13.52;71.80;100669.22;2101048;28;20100;-76
2022/04/24 03:53:25;;;;;;;5.93;2.65;;;;;;;13.54;71.57;100669.22;2102183;28;20050;-76
2022/04/24 03:54:46;;;;;;;6.78;3.00;;;;;;;13.59;71.83;100677.22;2101527;28;20062;-76
2022/04/24 03:56:09;;;;;;;7.20;2.88;;;;;;;13.64;71.91;100675.44;2110387;28;20142;-76
2022/04/24 03:57:31;;;;;;;6.28;2.88;;;;;;;13.70;71.87;100675.47;2095835;28;20113;-76
2022/04/24 03:58:54;;;;;;;7.22;2.78;;;;;;;13.77;71.90;100677.25;2097987;28;20055;-76
2022/04/24 04:00:16;;;;;;;6.95;2.92;;;;;;;13.83;72.43;100675.47;2096318;28;20578;-76
2022/04/24 04:01:39;;;;;;;11.05;3.95;;;;;;;13.90;72.85;100673.72;2094099;28;20147;-76
2022/04/24 04:03:01;;;;;;;9.57;2.60;;;;;;;13.95;72.77;100675.47;2093942;28;20454;-77
2022/04/24 04:04:23;;;;;;;4.72;2.20;;;;;;;14.01;72.93;100671.06;2096547;28;20135;-76
2022/04/24 04:05:45;;;;;;;9.32;2.70;;;;;;;14.10;73.18;100679.91;2096416;28;20067;-76
2022/04/24 04:07:09;;;;;;;6.63;2.65;;;;;;;14.18;73.41;100679.88;2093972;28;20055;-76
2022/04/24 04:08:31;;;;;;;5.90;2.33;;;;;;;14.20;73.58;100681.66;2106476;28;20060;-76
2022/04/24 04:09:55;;;;;;;4.38;2.28;;;;;;;14.23;73.57;100676.38;2095729;28;20143;-76
2022/04/24 04:11:17;;;;;;;10.43;2.50;;;;;;;14.24;73.71;100677.25;2099807;28;20138;-76
2022/04/24 04:12:38;;;;;;;6.38;2.58;;;;;;;14.32;73.95;100678.09;2102006;28;20116;-77
2022/04/24 04:14:01;;;;;;;9.52;2.80;;;;;;;14.49;74.10;100680.78;2096628;28;20075;-76
2022/04/24 04:15:24;;;;;;;6.50;2.78;;;;;;;14.66;74.03;100676.31;2098984;28;20044;-77
2022/04/24 04:16:45;;;;;;;5.20;2.40;;;;;;;14.82;73.87;100686.03;2110333;28;20048;-76
2022/04/24 04:18:08;;;;;;;6.30;2.78;;;;;;;14.96;73.64;100678.91;2104097;28;20060;-76
2022/04/24 04:19:29;;;;;;;7.13;2.60;;;;;;;15.09;73.91;100683.28;2093547;28;20032;-76
2022/04/24 04:20:52;;;;;;;8.38;2.90;;;;;;;15.23;74.06;100680.53;2093653;28;20048;-77
2022/04/24 04:22:16;;;;;;;7.40;2.65;;;;;;;15.37;74.18;100681.34;2086308;28;20082;-76
2022/04/24 04:23:37;;;;;;;4.95;2.15;;;;;;;15.50;73.78;100684.81;2098376;28;20131;-76
2022/04/24 04:25:00;;;;;;;8.30;2.75;;;;;;;15.61;73.84;100684.81;2101266;28;20056;-77
2022/04/24 04:26:22;;;;;;;6.40;2.58;;;;;;;15.72;73.68;100681.19;2095548;28;20049;-77
2022/04/24 04:27:43;;;;;;;10.07;2.67;;;;;;;15.82;73.74;100687.31;2099398;28;20077;-77
2022/04/24 04:29:06;;;;;;;7.88;2.83;;;;;;;15.94;73.99;100685.47;2104002;28;20042;-77
2022/04/24 04:30:28;;;;;;;8.80;2.55;;;;;;;16.11;73.60;100685.31;2102097;28;20044;-77
2022/04/24 04:31:51;;;;;;;7.10;2.42;;;;;;;16.28;73.40;100687.81;2101005;28;20141;-77
2022/04/24 04:33:13;;;;;;;6.32;2.60;;;;;;;16.43;73.33;100690.34;2109382;28;20126;-76
2022/04/24 04:34:36;;;;;;;6.72;2.25;;;;;;;16.58;72.68;100690.22;2096527;28;20164;-77
2022/04/24 04:35:58;;;;;;;7.85;2.70;;;;;;;16.76;72.09;100688.28;2090596;28;20080;-77
2022/04/24 04:37:23;;;;;;;6.47;2.03;;;;;;;16.92;71.49;100695.22;2096446;28;20044;-77
2022/04/24 04:38:45;;;;;;;5.63;1.50;;;;;;;17.06;71.17;100688.84;2097767;28;20050;-77
2022/04/24 04:40:08;;;;;;;6.20;2.60;;;;;;;17.19;70.91;100692.22;2099173;28;20639;-77
2022/04/24 04:41:31;;;;;;;7.18;1.73;;;;;;;17.33;70.36;100689.34;2102348;28;20109;-77
2022/04/24 04:42:54;;;;;;;4.53;1.90;;;;;;;17.47;70.45;100696.28;2109422;28;20592;-77
2022/04/24 04:44:15;;;;;;;4.75;1.92;;;;;;;17.64;70.24;100692.53;2104423;28;20047;-77
2022/04/24 04:45:38;;;;;;;6.38;2.10;;;;;;;17.82;69.67;100700.28;2094145;28;20107;-77
2022/04/24 04:47:00;;;;;;;3.47;1.85;;;;;;;17.97;69.16;100702.72;2108179;28;20437;-77
2022/04/24 04:48:22;;;;;;;5.68;1.80;;;;;;;18.14;68.89;100694.41;2105232;28;20606;-77
2022/04/24 04:49:44;;;;;;;3.33;1.60;;;;;;;18.26;68.08;100696.88;2105987;28;20570;-77
2022/04/24 04:51:07;;;;;;;7.65;2.22;;;;;;;18.42;67.92;100697.50;2097653;28;20416;-77
2022/04/24 04:52:30;;;;;;;9.43;1.98;;;;;;;18.62;66.83;100706.09;2100737;28;20373;-77
2022/04/24 04:53:55;;;;;;;4.30;1.77;;;;;;;18.78;66.34;100707.56;2103609;28;20052;-77
2022/04/24 04:55:16;;;;;;;3.40;1.70;;;;;;;18.97;65.79;100700.94;2103015;28;20069;-77
2022/04/24 04:56:39;;;;;;;8.95;2.00;;;;;;;19.14;65.59;100699.72;2102651;28;20115;-77
2022/04/24 04:58:02;;;;;;;6.60;2.05;;;;;;;19.33;64.84;100706.47;2095264;28;20041;-77
2022/04/24 04:59:25;;;;;;;7.82;2.13;;;;;;;19.48;64.47;100707.06;2109694;28;20083;-77
2022/04/24 05:00:47;;;;;;;7.60;3.10;;;;;;;19.68;63.54;100708.41;2104354;28;20047;-77
2022/04/24 05:02:09;;;;;;;16.98;3.78;;;;;;;19.83;63.31;100710.72;2104945;28;20412;-77
2022/04/24 05:03:32;;;;;;;4.88;2.20;;;;;;;20.05;62.74;100716.47;2096715;28;20033;-78
2022/04/24 05:04:53;;;;;;;7.00;2.10;;;;;;;20.24;61.26;100715.09;2102616;28;20143;-78
2022/04/24 05:06:16;;;;;;;4.85;1.92;;;;;;;20.36;60.51;100716.63;2100102;28;20059;-78
2022/04/24 05:07:40;;;;;;;5.40;2.20;;;;;;;20.48;59.97;100711.81;2102511;28;20053;-78
2022/04/24 05:09:03;;;;;;;5.82;2.00;;;;;;;20.67;59.79;100710.44;2101377;28;20104;-78
2022/04/24 05:10:25;;;;;;;6.47;2.10;;;;;;;20.89;58.85;100712.53;2101819;28;20044;-78
2022/04/24 05:11:46;;;;;;;4.55;2.17;;;;;;;21.04;57.78;100710.31;2102342;28;20044;-78
2022/04/24 05:13:10;;;;;;;5.45;1.90;;;;;;;21.21;57.25;100709.84;2100545;28;20052;-78
2022/04/24 05:14:32;;;;;;;9.93;2.15;;;;;;;21.40;56.31;100712.88;2099418;28;20492;-79
2022/04/24 05:15:55;;;;;;;5.15;1.90;;;;;;;21.59;55.36;100718.59;2099889;28;20134;-78
2022/04/24 05:17:18;;;;;;;13.20;3.25;;;;;;;21.78;55.00;100712.59;2093759;28;20055;-79
2022/04/24 05:18:40;;;;;;;5.93;2.20;;;;;;;21.98;54.21;100714.69;2100539;28;20606;-78
2022/04/24 05:20:04;;;;;;;9.70;1.90;;;;;;;22.16;53.78;100710.53;2092411;28;20094;-78
2022/04/24 05:21:26;;;;;;;6.57;2.33;;;;;;;22.35;53.21;100708.09;2089216;28;20093;-78
2022/04/24 05:22:50;;;;;;;17.27;2.42;;;;;;;22.53;52.76;100707.47;2097599;28;20036;-79
2022/04/24 05:24:12;;;;;;;9.00;1.83;;;;;;;22.73;52.19;100706.81;2100678;28;20040;-79
2022/04/24 05:25:36;;;;;;;16.90;3.22;;;;;;;22.92;51.19;100706.09;2100670;28;20044;-78
2022/04/24 05:26:57;;;;;;;9.57;2.88;;;;;;;23.12;50.43;100699.97;2098913;28;20052;-78
2022/04/24 05:28:19;;;;;;;8.38;2.42;;;;;;;23.31;50.22;100700.16;2101398;28;20051;-79
2022/04/24 05:29:41;;;;;;;12.57;2.30;;;;;;;23.50;50.02;100703.94;2093699;28;20052;-79
2022/04/24 05:31:05;;;;;;;13.43;3.00;;;;;;;23.69;49.42;100696.06;2089817;28;20103;-79
2022/04/24 05:32:27;;;;;;;18.90;2.58;;;;;;;23.92;48.37;100696.00;2097245;28;20040;-79
2022/04/24 05:33:49;;;;;;;10.98;2.25;;;;;;;24.16;47.10;100699.50;2102983;28;20073;-79
2022/04/24 05:35:13;;;;;;;14.27;2.30;;;;;;;24.41;46.62;100704.81;2102455;28;20048;-79
2022/04/24 05:36:35;;;;;;;12.05;2.22;;;;;;;24.62;46.31;100702.03;2107568;28;20111;-79
2022/04/24 05:37:59;;;;;;;15.82;2.30;;;;;;;24.83;45.94;100702.03;2103427;28;20127;-79
2022/04/24 05:39:22;;;;;;;41.38;5.07;;;;;;;24.96;45.75;100700.59;2099694;28;20096;-79
2022/04/24 05:40:44;;;;;;;13.95;2.83;;;;;;;25.17;45.49;100694.22;2108099;28;20139;-79
2022/04/24 05:42:06;;;;;;;22.65;3.60;;;;;;;25.38;44.58;100698.66;2104743;28;20096;-79
2022/04/24 05:43:28;;;;;;;;;;;;;;;25.50;43.98;100696.31;2102604;28;20544;-79
2022/04/24 05:44:50;;;;;;;21.17;4.40;;;;;;;25.66;43.91;100706.38;2101668;28;19984;-79
2022/04/24 05:46:13;;;;;;;22.23;5.07;;;;;;;25.80;42.99;100702.97;2101745;28;20143;-79
2022/04/24 05:47:34;;;;;;;16.23;3.95;;;;;;;25.89;42.90;100693.56;2107903;28;20115;-79
2022/04/24 05:49:00;;;;;;;19.75;4.13;;;;;;;26.06;42.82;100693.59;2105496;28;20511;-79
2022/04/24 05:50:24;;;;;;;19.48;3.78;;;;;;;26.17;42.45;100694.84;2100490;28;20035;-79
2022/04/24 05:51:46;;;;;;;25.98;4.57;;;;;;;26.27;41.77;100695.28;2099552;28;20043;-79
2022/04/24 05:53:11;;;;;;;29.65;3.38;;;;;;;26.45;40.20;100693.47;2092945;28;20052;-80
2022/04/24 05:54:34;;;;;;;40.33;5.22;;;;;;;26.61;39.24;100688.13;2098846;28;20588;-79
2022/04/24 05:55:57;;;;;;;29.85;4.60;;;;;;;26.67;37.83;100691.41;2111447;28;20035;-80
2022/04/24 05:57:19;;;;;;;27.35;3.92;;;;;;;26.72;37.14;100696.56;2102400;28;20052;-79
2022/04/24 05:58:41;;;;;;;33.10;7.05;;;;;;;26.83;36.96;100695.06;2102274;28;20092;-80
2022/04/24 06:00:05;;;;;;;42.10;6.68;;;;;;;26.96;36.34;100679.94;2100957;28;20040;-79
2022/04/24 06:01:34;;;;;;;31.30;5.65;;;;;;;27.14;36.36;100679.91;2103734;28;20492;-79
2022/04/24 06:02:57;;;;;;;38.95;4.88;;;;;;;27.22;35.25;100677.66;2094153;28;22174;-79
2022/04/24 06:04:20;;;;;;;30.15;4.40;;;;;;;27.22;34.97;100683.97;2098321;28;20056;-79
2022/04/24 06:05:42;;;;;;;26.35;4.53;;;;;;;27.26;34.07;100679.22;2105132;28;20048;-80
2022/04/24 06:07:04;;;;;;;33.92;3.20;;;;;;;27.33;33.98;100683.38;2102675;28;20032;-80
2022/04/24 06:08:28;;;;;;;29.05;3.55;;;;;;;27.38;33.07;100686.69;2105757;28;20060;-79
2022/04/24 06:09:50;;;;;;;30.15;5.85;;;;;;;27.41;33.57;100685.66;2094584;28;20135;-80
2022/04/24 06:11:12;;;;;;;34.38;4.57;;;;;;;27.44;33.08;100690.94;2094070;28;20052;-80
2022/04/24 06:12:45;;;;;;;35.83;3.78;;;;;;;27.46;32.28;100686.28;2102908;28;20584;-80
2022/04/24 06:14:07;;;;;;;31.90;4.35;;;;;;;27.48;32.28;100692.50;2103078;28;20044;-80
2022/04/24 06:15:30;;;;;;;34.15;4.00;;;;;;;27.52;32.18;100702.22;2106672;28;20040;-80
2022/04/24 06:16:52;;;;;;;29.42;4.00;;;;;;;27.55;32.43;100692.09;2101188;28;20072;-80
2022/04/24 06:18:15;;;;;;;32.58;3.80;;;;;;;27.60;32.00;100687.28;2100098;28;20480;-80
2022/04/24 06:19:36;;;;;;;33.67;4.13;;;;;;;27.65;32.14;100687.91;2091413;28;20083;-80
2022/04/24 06:20:58;;;;;;;29.17;6.05;;;;;;;27.74;31.45;100695.53;2092257;28;20049;-80
2022/04/24 06:22:20;;;;;;;34.05;5.63;;;;;;;27.92;31.48;100690.00;2100964;28;20055;-80
2022/04/24 06:23:44;;;;;;;26.85;4.70;;;;;;;27.95;31.45;100687.13;2088896;28;20045;-81
2022/04/24 06:25:06;;;;;;;34.60;5.10;;;;;;;27.93;31.79;100684.50;2105220;28;20044;-81